Time;durP1;ratioP1;P1;durP2;ratioP2;P2;SDS_P1;SDS_P2;PMS_P1;PMS_P2;Temp;Humidity;BMP_temperature;BMP_pressure;BME280_temperature;BME280_humidity;BME280_pressure;Samples;Min_cycle;Max_cycle;Signal;HPM_P1;HPM_P2
2021/10/15 00:00:41;;;;;;;14.45;9.15;;;;;;;;;;5004294;28;20044;-80
2021/10/15 00:03:07;;;;;;;13.45;8.45;;;;;;;;;;5007665;28;20041;-80
2021/10/15 00:05:37;;;;;;;14.55;8.40;;;;;;;;;;4988802;28;20620;-81
2021/10/15 00:08:03;;;;;;;15.30;8.60;;;;;;;;;;4988073;28;20166;-80
2021/10/15 00:10:29;;;;;;;12.95;7.43;;;;;;;;;;5007970;28;20069;-80
2021/10/15 00:12:54;;;;;;;13.98;8.05;;;;;;;;;;5008551;28;20033;-80
2021/10/15 00:15:19;;;;;;;15.15;7.88;;;;;;;;;;5007165;28;20084;-80
2021/10/15 00:17:45;;;;;;;11.75;6.88;;;;;;;;;;5002445;28;20026;-80
2021/10/15 00:20:11;;;;;;;14.43;8.05;;;;;;;;;;5002613;28;20025;-80
2021/10/15 00:22:36;;;;;;;13.52;7.10;;;;;;;;;;4989232;28;20038;-80
2021/10/15 00:25:03;;;;;;;12.32;7.28;;;;;;;;;;5006854;28;20205;-80
2021/10/15 00:27:28;;;;;;;12.10;6.82;;;;;;;;;;5006820;28;20109;-80
2021/10/15 00:29:54;;;;;;;11.80;6.65;;;;;;;;;;5008171;28;20109;-80
2021/10/15 00:32:19;;;;;;;16.55;8.00;;;;;;;;;;5008678;28;20489;-80
2021/10/15 00:34:45;;;;;;;17.67;7.88;;;;;;;;;;4987781;28;20531;-80
2021/10/15 00:37:11;;;;;;;13.02;6.40;;;;;;;;;;5005656;28;20026;-80
2021/10/15 00:39:38;;;;;;;10.15;5.78;;;;;;;;;;5006924;28;20083;-81
2021/10/15 00:42:04;;;;;;;10.10;6.03;;;;;;;;;;4985847;28;20029;-80
2021/10/15 00:44:30;;;;;;;10.68;6.38;;;;;;;;;;4992479;28;20029;-80
2021/10/15 00:46:57;;;;;;;12.73;6.63;;;;;;;;;;4991955;28;20030;-80
2021/10/15 00:49:23;;;;;;;11.48;6.10;;;;;;;;;;5009570;28;20096;-80
2021/10/15 00:51:51;;;;;;;9.93;6.47;;;;;;;;;;5007662;28;20561;-80
2021/10/15 00:54:16;;;;;;;9.85;5.30;;;;;;;;;;5010758;28;20026;-80
2021/10/15 00:56:43;;;;;;;8.07;5.15;;;;;;;;;;5003296;28;20041;-80
2021/10/15 00:59:15;;;;;;;10.00;5.25;;;;;;;;;;5010855;28;20030;-80
2021/10/15 01:01:41;;;;;;;7.85;4.50;;;;;;;;;;5009271;28;20482;-81
2021/10/15 01:04:09;;;;;;;8.10;4.22;;;;;;;;;;5008782;28;20029;-82
2021/10/15 01:06:35;;;;;;;7.88;4.10;;;;;;;;;;4993575;28;20506;-81
2021/10/15 01:09:03;;;;;;;9.63;4.90;;;;;;;;;;4994056;28;20112;-81
2021/10/15 01:11:29;;;;;;;7.13;4.43;;;;;;;;;;5008359;28;20034;-81
2021/10/15 01:13:55;;;;;;;7.97;4.95;;;;;;;;;;5010226;28;20032;-81
2021/10/15 01:16:30;;;;;;;11.05;5.72;;;;;;;;;;5009966;28;20104;-81
2021/10/15 01:18:57;;;;;;;9.07;5.30;;;;;;;;;;5009090;28;20028;-82
2021/10/15 01:21:23;;;;;;;7.50;4.82;;;;;;;;;;5009015;28;20033;-82
2021/10/15 01:23:49;;;;;;;9.10;4.82;;;;;;;;;;5011179;28;20109;-82
2021/10/15 01:26:15;;;;;;;7.35;4.60;;;;;;;;;;5008847;28;20148;-81
2021/10/15 01:28:40;;;;;;;7.13;4.07;;;;;;;;;;5010807;28;20122;-81
2021/10/15 01:31:06;;;;;;;8.60;4.20;;;;;;;;;;5011573;28;20117;-81
2021/10/15 01:33:32;;;;;;;7.03;4.03;;;;;;;;;;4992765;28;20037;-80
2021/10/15 01:35:58;;;;;;;7.05;3.50;;;;;;;;;;5008258;28;20029;-80
2021/10/15 01:38:24;;;;;;;7.60;4.50;;;;;;;;;;5008297;28;20486;-80
2021/10/15 01:40:49;;;;;;;5.68;3.38;;;;;;;;;;5010443;28;20029;-80
2021/10/15 01:43:23;;;;;;;6.30;3.63;;;;;;;;;;4991092;28;20033;-80
2021/10/15 01:45:49;;;;;;;6.93;3.60;;;;;;;;;;5009543;28;20033;-80
2021/10/15 01:48:15;;;;;;;6.13;3.20;;;;;;;;;;5009046;28;20038;-80
2021/10/15 01:50:40;;;;;;;6.82;4.07;;;;;;;;;;4995048;28;20044;-80
2021/10/15 01:53:06;;;;;;;8.57;3.65;;;;;;;;;;5008823;28;20378;-81
2021/10/15 01:55:31;;;;;;;5.85;3.25;;;;;;;;;;5009479;28;20030;-81
2021/10/15 01:57:57;;;;;;;6.90;4.00;;;;;;;;;;5010570;28;20057;-81
2021/10/15 02:00:22;;;;;;;6.22;3.95;;;;;;;;;;4993115;28;20112;-80
2021/10/15 02:02:47;;;;;;;7.32;3.53;;;;;;;;;;5011014;28;20299;-81
2021/10/15 02:05:16;;;;;;;7.47;4.18;;;;;;;;;;5008791;28;20057;-81
2021/10/15 02:07:44;;;;;;;8.93;4.25;;;;;;;;;;5011253;28;20140;-79
2021/10/15 02:10:14;;;;;;;8.05;4.72;;;;;;;;;;5007782;28;20045;-80
2021/10/15 02:12:43;;;;;;;11.00;6.07;;;;;;;;;;5008245;28;20026;-81
2021/10/15 02:15:10;;;;;;;11.43;5.22;;;;;;;;;;5010795;28;20154;-80
2021/10/15 02:17:36;;;;;;;11.40;6.13;;;;;;;;;;5004903;28;20021;-82
2021/10/15 02:20:04;;;;;;;12.48;7.03;;;;;;;;;;4993736;28;20116;-80
2021/10/15 02:22:29;;;;;;;12.10;6.93;;;;;;;;;;5009818;28;20034;-80
2021/10/15 02:24:54;;;;;;;10.23;6.53;;;;;;;;;;5008706;28;20022;-81
2021/10/15 02:27:20;;;;;;;9.82;5.97;;;;;;;;;;4991847;28;20025;-82
2021/10/15 02:29:45;;;;;;;13.02;6.68;;;;;;;;;;4994358;28;20017;-80
2021/10/15 02:32:11;;;;;;;17.40;7.82;;;;;;;;;;4994134;28;20464;-81
2021/10/15 02:34:36;;;;;;;13.77;6.78;;;;;;;;;;4993121;28;20440;-81
2021/10/15 02:37:04;;;;;;;12.68;6.40;;;;;;;;;;4993574;28;20340;-81
2021/10/15 02:39:29;;;;;;;13.57;6.63;;;;;;;;;;5011632;28;20030;-81
2021/10/15 02:41:55;;;;;;;16.25;7.70;;;;;;;;;;5012039;28;20068;-82
2021/10/15 02:44:20;;;;;;;12.05;6.50;;;;;;;;;;5009561;28;20087;-82
2021/10/15 02:46:46;;;;;;;12.90;6.40;;;;;;;;;;4993585;28;20211;-80
2021/10/15 02:49:11;;;;;;;15.75;6.82;;;;;;;;;;4992996;28;20421;-81
2021/10/15 02:51:36;;;;;;;13.45;6.85;;;;;;;;;;4995964;28;20026;-82
2021/10/15 02:54:03;;;;;;;12.02;6.47;;;;;;;;;;4992342;28;20029;-82
2021/10/15 02:56:29;;;;;;;14.07;6.45;;;;;;;;;;4993473;28;20033;-80
2021/10/15 02:58:55;;;;;;;15.80;6.60;;;;;;;;;;5023404;28;20029;-81
2021/10/15 03:01:20;;;;;;;11.75;6.68;;;;;;;;;;5004073;28;20089;-80
2021/10/15 03:03:46;;;;;;;11.93;6.45;;;;;;;;;;4992407;28;20029;-80
2021/10/15 03:06:11;;;;;;;12.27;6.10;;;;;;;;;;5006985;28;20037;-80
2021/10/15 03:08:37;;;;;;;14.27;5.53;;;;;;;;;;4989835;28;20073;-81
2021/10/15 03:11:05;;;;;;;11.50;6.07;;;;;;;;;;4989296;28;20053;-80
2021/10/15 03:13:33;;;;;;;12.10;6.18;;;;;;;;;;5008232;28;20076;-80
2021/10/15 03:15:58;;;;;;;11.15;6.20;;;;;;;;;;4991080;28;20184;-80
2021/10/15 03:18:24;;;;;;;12.48;6.07;;;;;;;;;;5006781;28;20532;-80
2021/10/15 03:20:49;;;;;;;12.82;6.22;;;;;;;;;;4991992;28;20029;-80
2021/10/15 03:23:15;;;;;;;14.50;6.75;;;;;;;;;;4990538;28;20087;-80
2021/10/15 03:25:40;;;;;;;14.65;6.93;;;;;;;;;;5004333;28;20037;-80
2021/10/15 03:28:06;;;;;;;12.35;5.80;;;;;;;;;;5007005;28;20410;-80
2021/10/15 03:30:32;;;;;;;13.48;6.25;;;;;;;;;;4991986;28;20326;-80
2021/10/15 03:32:58;;;;;;;11.82;5.90;;;;;;;;;;5008092;28;20044;-80
2021/10/15 03:35:23;;;;;;;9.90;5.55;;;;;;;;;;5008737;28;20469;-80
2021/10/15 03:37:49;;;;;;;11.48;6.65;;;;;;;;;;5008553;28;20032;-80
2021/10/15 03:40:14;;;;;;;10.85;6.00;;;;;;;;;;5007515;28;20030;-79
2021/10/15 03:42:40;;;;;;;11.02;5.35;;;;;;;;;;5007333;28;20041;-80
2021/10/15 03:45:08;;;;;;;10.63;5.50;;;;;;;;;;4990230;28;20161;-80
2021/10/15 03:47:34;;;;;;;8.13;4.95;;;;;;;;;;5006415;28;20099;-80
2021/10/15 03:50:00;;;;;;;10.88;5.90;;;;;;;;;;5005658;28;20064;-80
2021/10/15 03:52:26;;;;;;;9.63;5.68;;;;;;;;;;4991584;28;20041;-80
2021/10/15 03:54:54;;;;;;;10.23;5.35;;;;;;;;;;4989301;28;20033;-80
2021/10/15 03:57:21;;;;;;;11.90;5.88;;;;;;;;;;5006782;28;20022;-80
2021/10/15 03:59:49;;;;;;;10.18;5.47;;;;;;;;;;5007775;28;20034;-80
2021/10/15 04:02:14;;;;;;;9.30;5.60;;;;;;;;;;4989441;28;20370;-80
2021/10/15 04:04:40;;;;;;;8.05;5.10;;;;;;;;;;5007243;28;20029;-81
2021/10/15 04:07:05;;;;;;;10.48;5.55;;;;;;;;;;5004986;28;20489;-80
2021/10/15 04:09:31;;;;;;;12.32;6.00;;;;;;;;;;4989005;28;20041;-80
2021/10/15 04:11:56;;;;;;;10.88;6.78;;;;;;;;;;5007787;28;20026;-80
2021/10/15 04:14:23;;;;;;;11.00;5.60;;;;;;;;;;5007674;28;20052;-80
2021/10/15 04:16:48;;;;;;;11.95;5.72;;;;;;;;;;5006781;28;20367;-79
2021/10/15 04:19:16;;;;;;;10.68;5.95;;;;;;;;;;5007661;28;20025;-80
2021/10/15 04:21:43;;;;;;;12.65;7.10;;;;;;;;;;5011981;28;20148;-81
2021/10/15 04:24:08;;;;;;;12.07;5.43;;;;;;;;;;4993151;28;20518;-81
2021/10/15 04:26:34;;;;;;;10.00;5.30;;;;;;;;;;5009106;28;20033;-80
2021/10/15 04:28:59;;;;;;;11.07;5.57;;;;;;;;;;5012239;28;20432;-80
2021/10/15 04:31:25;;;;;;;10.73;5.55;;;;;;;;;;4993677;28;20542;-79
2021/10/15 04:33:52;;;;;;;10.50;5.72;;;;;;;;;;5010017;28;20109;-80
2021/10/15 04:36:18;;;;;;;9.10;5.35;;;;;;;;;;5012568;28;20469;-81
2021/10/15 04:38:43;;;;;;;8.75;5.90;;;;;;;;;;4993193;28;20036;-79
2021/10/15 04:41:11;;;;;;;12.38;5.93;;;;;;;;;;4994004;28;20087;-80
2021/10/15 04:43:37;;;;;;;10.85;5.22;;;;;;;;;;5010717;28;20038;-79
2021/10/15 04:46:02;;;;;;;15.43;8.02;;;;;;;;;;5011833;28;20036;-80
2021/10/15 04:48:28;;;;;;;30.10;12.85;;;;;;;;;;5010547;28;20101;-80
2021/10/15 04:50:55;;;;;;;16.63;7.78;;;;;;;;;;4993228;28;20029;-79
2021/10/15 04:53:21;;;;;;;15.30;7.05;;;;;;;;;;4989847;28;20049;-79
2021/10/15 04:55:49;;;;;;;17.33;7.85;;;;;;;;;;4992397;28;20072;-79
2021/10/15 04:58:15;;;;;;;16.48;8.10;;;;;;;;;;5007905;28;20025;-80
2021/10/15 05:00:42;;;;;;;12.27;6.45;;;;;;;;;;4993341;28;20088;-78
2021/10/15 05:03:08;;;;;;;16.15;6.22;;;;;;;;;;5010762;28;20022;-79
2021/10/15 05:05:39;;;;;;;11.52;5.70;;;;;;;;;;4993069;28;20036;-79
2021/10/15 05:08:05;;;;;;;13.35;7.00;;;;;;;;;;5009523;28;20069;-78
2021/10/15 05:10:30;;;;;;;13.35;6.47;;;;;;;;;;4995261;28;20046;-78
2021/10/15 05:12:56;;;;;;;9.20;5.20;;;;;;;;;;4996117;28;20462;-79
2021/10/15 05:15:22;;;;;;;8.75;4.70;;;;;;;;;;5013532;28;20030;-78
2021/10/15 05:17:50;;;;;;;12.05;5.90;;;;;;;;;;5006851;28;20481;-79
2021/10/15 05:20:19;;;;;;;12.90;6.25;;;;;;;;;;5010264;28;20102;-79
2021/10/15 05:22:45;;;;;;;13.45;6.38;;;;;;;;;;5008404;28;20058;-78
2021/10/15 05:25:11;;;;;;;12.52;6.68;;;;;;;;;;4992121;28;20064;-78
2021/10/15 05:27:37;;;;;;;14.45;6.88;;;;;;;;;;5007475;28;20034;-77
2021/10/15 05:30:05;;;;;;;17.60;9.07;;;;;;;;;;5007480;28;20118;-76
2021/10/15 05:32:30;;;;;;;13.18;6.47;;;;;;;;;;5009712;28;20052;-78
2021/10/15 05:34:56;;;;;;;21.65;11.05;;;;;;;;;;5008894;28;20030;-77
2021/10/15 05:37:22;;;;;;;18.08;8.93;;;;;;;;;;4994130;28;20417;-78
2021/10/15 05:39:47;;;;;;;26.35;11.70;;;;;;;;;;5009592;28;20025;-79
2021/10/15 05:42:16;;;;;;;12.50;6.60;;;;;;;;;;5011284;28;20400;-79
2021/10/15 05:44:41;;;;;;;11.20;5.82;;;;;;;;;;5011920;28;20065;-79
2021/10/15 05:47:10;;;;;;;16.00;7.05;;;;;;;;;;5009011;28;20077;-78
2021/10/15 05:49:38;;;;;;;23.17;10.00;;;;;;;;;;5010098;28;20030;-79
2021/10/15 05:52:07;;;;;;;29.58;11.30;;;;;;;;;;4992729;28;20512;-78
2021/10/15 05:54:43;;;;;;;23.58;10.82;;;;;;;;;;5013252;28;20029;-79
2021/10/15 06:00:08;;;;;;;15.80;6.93;;;;;;;;;;4991110;28;20045;-79
2021/10/15 06:02:35;;;;;;;15.45;5.95;;;;;;;;;;5007827;28;20036;-78
2021/10/15 06:15:44;;;;;;;11.70;6.63;;;;;;;;;;5015749;28;20097;-78
2021/10/15 06:18:13;;;;;;;12.88;6.95;;;;;;;;;;5011750;28;20034;-78
2021/10/15 06:20:41;;;;;;;13.80;6.15;;;;;;;;;;5014733;28;20029;-78
2021/10/15 06:23:07;;;;;;;11.57;6.57;;;;;;;;;;5012616;28;20053;-77
2021/10/15 06:25:32;;;;;;;15.27;6.50;;;;;;;;;;4997148;28;20042;-77
2021/10/15 06:28:01;;;;;;;13.32;6.63;;;;;;;;;;4995303;28;20459;-79
2021/10/15 06:30:27;;;;;;;18.75;8.68;;;;;;;;;;5010763;28;20581;-78
2021/10/15 06:32:53;;;;;;;22.52;10.13;;;;;;;;;;4993422;28;20040;-78
2021/10/15 06:35:20;;;;;;;18.38;9.05;;;;;;;;;;4993523;28;20018;-78
2021/10/15 06:37:45;;;;;;;22.08;11.40;;;;;;;;;;5013195;28;20029;-77
2021/10/15 06:40:11;;;;;;;29.15;13.20;;;;;;;;;;4992576;28;20065;-77
2021/10/15 06:42:36;;;;;;;29.27;13.50;;;;;;;;;;5008307;28;20045;-78
2021/10/15 06:45:03;;;;;;;27.02;15.55;;;;;;;;;;4992308;28;20120;-77
2021/10/15 06:47:31;;;;;;;30.13;15.65;;;;;;;;;;5007568;28;20037;-77
2021/10/15 06:49:57;;;;;;;26.30;14.13;;;;;;;;;;5010644;28;20064;-79
2021/10/15 06:52:23;;;;;;;22.88;13.43;;;;;;;;;;5009671;28;20489;-79
2021/10/15 06:54:49;;;;;;;23.00;12.57;;;;;;;;;;5009162;28;20034;-77
2021/10/15 06:57:14;;;;;;;21.90;11.48;;;;;;;;;;4994677;28;20045;-79
2021/10/15 06:59:40;;;;;;;23.33;12.48;;;;;;;;;;5006683;28;20097;-78
2021/10/15 07:02:05;;;;;;;21.95;10.88;;;;;;;;;;5026275;28;20030;-78
2021/10/15 07:04:31;;;;;;;18.00;9.30;;;;;;;;;;5015403;28;20066;-79
2021/10/15 07:06:57;;;;;;;20.92;10.35;;;;;;;;;;4988500;28;20029;-79
2021/10/15 07:09:25;;;;;;;23.00;12.32;;;;;;;;;;4987590;28;20057;-78
2021/10/15 07:11:50;;;;;;;25.88;13.55;;;;;;;;;;5007832;28;20209;-77
2021/10/15 07:14:16;;;;;;;18.17;10.43;;;;;;;;;;5010071;28;20120;-78
2021/10/15 07:16:42;;;;;;;19.60;10.70;;;;;;;;;;5002582;28;20616;-78
2021/10/15 07:19:08;;;;;;;17.85;9.27;;;;;;;;;;4993319;28;20026;-78
2021/10/15 07:21:34;;;;;;;17.50;9.00;;;;;;;;;;4992537;28;21040;-79
2021/10/15 07:23:59;;;;;;;22.38;8.90;;;;;;;;;;5010544;28;20099;-77
2021/10/15 07:26:25;;;;;;;15.63;8.05;;;;;;;;;;5009698;28;20021;-79
2021/10/15 07:28:51;;;;;;;15.55;7.60;;;;;;;;;;5010029;28;20038;-78
2021/10/15 07:31:17;;;;;;;16.05;7.85;;;;;;;;;;5008724;28;20076;-78
2021/10/15 07:33:43;;;;;;;20.38;9.80;;;;;;;;;;5009173;28;20413;-79
2021/10/15 07:36:09;;;;;;;25.52;11.57;;;;;;;;;;4990549;28;20735;-79
2021/10/15 07:38:36;;;;;;;23.73;11.70;;;;;;;;;;4993637;28;20029;-79
2021/10/15 07:41:02;;;;;;;26.05;11.70;;;;;;;;;;5008990;28;20176;-79
2021/10/15 07:43:28;;;;;;;22.65;11.43;;;;;;;;;;5009626;28;20046;-78
2021/10/15 07:45:53;;;;;;;23.77;11.68;;;;;;;;;;4989982;28;20084;-78
2021/10/15 07:48:18;;;;;;;23.85;12.60;;;;;;;;;;5001886;28;20408;-80
2021/10/15 07:50:46;;;;;;;22.17;12.55;;;;;;;;;;4990198;28;20045;-77
2021/10/15 07:53:12;;;;;;;24.08;13.13;;;;;;;;;;4985369;28;20560;-78
2021/10/15 07:55:37;;;;;;;26.38;15.13;;;;;;;;;;5009116;28;20029;-78
2021/10/15 07:58:03;;;;;;;31.17;16.00;;;;;;;;;;5005835;28;20030;-77
2021/10/15 08:00:28;;;;;;;35.28;16.23;;;;;;;;;;5009986;28;20141;-79
2021/10/15 08:02:55;;;;;;;26.17;13.38;;;;;;;;;;5008921;28;20037;-79
2021/10/15 08:05:24;;;;;;;26.10;13.63;;;;;;;;;;4993427;28;20030;-79
2021/10/15 08:07:51;;;;;;;39.83;19.13;;;;;;;;;;4991058;28;20033;-78
2021/10/15 08:10:17;;;;;;;58.40;26.65;;;;;;;;;;4990113;28;20177;-78
2021/10/15 08:12:42;;;;;;;60.95;26.30;;;;;;;;;;5009699;28;20093;-79
2021/10/15 08:15:10;;;;;;;45.78;21.48;;;;;;;;;;4995663;28;20127;-78
2021/10/15 08:17:36;;;;;;;29.13;15.90;;;;;;;;;;5006826;28;20022;-77
2021/10/15 08:20:04;;;;;;;24.27;13.13;;;;;;;;;;5005562;28;20037;-77
2021/10/15 08:22:30;;;;;;;18.95;10.93;;;;;;;;;;4990476;28;20028;-79
2021/10/15 08:24:55;;;;;;;18.60;10.43;;;;;;;;;;5006259;28;20025;-78
2021/10/15 08:27:21;;;;;;;17.13;10.30;;;;;;;;;;5007473;28;20450;-78
2021/10/15 08:29:46;;;;;;;16.38;10.40;;;;;;;;;;5007929;28;20045;-79
2021/10/15 08:32:12;;;;;;;19.58;10.60;;;;;;;;;;5008170;28;20113;-78
2021/10/15 08:34:37;;;;;;;18.13;9.95;;;;;;;;;;4991506;28;20036;-77
2021/10/15 08:37:04;;;;;;;15.43;9.50;;;;;;;;;;5010336;28;20041;-77
2021/10/15 08:39:29;;;;;;;16.95;10.02;;;;;;;;;;4993876;28;20064;-80
2021/10/15 08:41:57;;;;;;;19.58;9.30;;;;;;;;;;5009395;28;20091;-78
2021/10/15 08:44:34;;;;;;;20.40;10.65;;;;;;;;;;4992133;28;20042;-78
2021/10/15 08:47:03;;;;;;;17.88;10.55;;;;;;;;;;4992112;28;20397;-79
2021/10/15 08:49:29;;;;;;;17.92;9.70;;;;;;;;;;4988961;28;20474;-78
2021/10/15 08:51:54;;;;;;;22.02;10.30;;;;;;;;;;4991083;28;20034;-78
2021/10/15 08:54:20;;;;;;;15.13;9.23;;;;;;;;;;5008653;28;20026;-79
2021/10/15 08:56:45;;;;;;;15.23;8.35;;;;;;;;;;5007971;28;20026;-77
2021/10/15 08:59:14;;;;;;;15.45;8.73;;;;;;;;;;4990197;28;20049;-78
2021/10/15 09:01:44;;;;;;;13.47;8.77;;;;;;;;;;4991485;28;20029;-77
2021/10/15 09:04:11;;;;;;;17.38;9.10;;;;;;;;;;4991872;28;20041;-77
2021/10/15 09:06:41;;;;;;;11.88;7.07;;;;;;;;;;5010703;28;20093;-78
2021/10/15 09:09:07;;;;;;;8.95;6.30;;;;;;;;;;5010774;28;20040;-78
2021/10/15 09:11:41;;;;;;;9.63;6.03;;;;;;;;;;5011618;28;20789;-79
2021/10/15 09:14:13;;;;;;;14.02;5.85;;;;;;;;;;5011928;28;20099;-78
2021/10/15 09:16:59;;;;;;;13.95;6.10;;;;;;;;;;4993632;28;20038;-77
2021/10/15 09:19:28;;;;;;;8.80;6.00;;;;;;;;;;5010938;28;20396;-77
2021/10/15 09:22:21;;;;;;;11.57;6.40;;;;;;;;;;5007830;28;20056;-78
2021/10/15 09:25:09;;;;;;;10.60;6.55;;;;;;;;;;4995477;28;20044;-78
2021/10/15 09:27:36;;;;;;;10.10;6.22;;;;;;;;;;5011355;28;20129;-77
2021/10/15 09:30:08;;;;;;;9.93;5.85;;;;;;;;;;5010963;28;20362;-79
2021/10/15 09:32:36;;;;;;;9.27;6.32;;;;;;;;;;4994185;28;20030;-79
2021/10/15 09:35:03;;;;;;;7.90;5.53;;;;;;;;;;5010002;28;20111;-78
2021/10/15 09:37:35;;;;;;;9.35;5.50;;;;;;;;;;5011890;28;20029;-78
2021/10/15 09:40:06;;;;;;;8.23;4.53;;;;;;;;;;5012136;28;20192;-79
2021/10/15 09:42:33;;;;;;;6.80;4.00;;;;;;;;;;4991817;28;20141;-79
2021/10/15 09:45:15;;;;;;;7.70;4.47;;;;;;;;;;5011389;28;20442;-79
2021/10/15 09:47:51;;;;;;;10.35;5.35;;;;;;;;;;4992002;28;20131;-80
2021/10/15 09:50:24;;;;;;;10.20;5.75;;;;;;;;;;5013368;28;20382;-79
2021/10/15 09:52:57;;;;;;;7.63;4.50;;;;;;;;;;5019065;28;20159;-78
2021/10/15 09:55:31;;;;;;;11.45;4.25;;;;;;;;;;5025683;28;20064;-78
2021/10/15 09:58:27;;;;;;;5.78;3.83;;;;;;;;;;5024545;28;20025;-78
2021/10/15 10:00:54;;;;;;;7.07;3.70;;;;;;;;;;4996274;28;20453;-78
2021/10/15 10:03:22;;;;;;;7.60;3.95;;;;;;;;;;5010308;28;20108;-78
2021/10/15 10:05:49;;;;;;;6.37;4.03;;;;;;;;;;5012356;28;20026;-79
2021/10/15 10:08:17;;;;;;;6.45;3.88;;;;;;;;;;5014263;28;20034;-78
2021/10/15 10:10:43;;;;;;;5.88;3.88;;;;;;;;;;5003189;28;20102;-79
2021/10/15 10:13:10;;;;;;;7.72;4.13;;;;;;;;;;5008659;28;20071;-78
2021/10/15 10:15:39;;;;;;;5.57;3.50;;;;;;;;;;5009030;28;20033;-78
2021/10/15 10:20:55;;;;;;;5.57;2.85;;;;;;;;;;5009505;28;20102;-78
2021/10/15 10:23:36;;;;;;;4.70;2.70;;;;;;;;;;5009311;28;20034;-79
2021/10/15 10:26:04;;;;;;;6.93;2.67;;;;;;;;;;5008904;28;20025;-78
2021/10/15 10:28:31;;;;;;;3.22;2.20;;;;;;;;;;5009393;28;20492;-78
2021/10/15 10:31:05;;;;;;;5.30;3.17;;;;;;;;;;5008388;28;20026;-80
2021/10/15 10:33:49;;;;;;;5.10;3.10;;;;;;;;;;5006335;28;20117;-79
2021/10/15 10:36:15;;;;;;;3.33;2.63;;;;;;;;;;4991161;28;20034;-80
2021/10/15 10:38:40;;;;;;;3.65;2.30;;;;;;;;;;5009544;28;20109;-80
2021/10/15 10:41:08;;;;;;;5.45;2.80;;;;;;;;;;5013515;28;20030;-80
2021/10/15 10:43:54;;;;;;;4.68;2.88;;;;;;;;;;4998019;28;20033;-79
2021/10/15 10:46:25;;;;;;;4.20;2.75;;;;;;;;;;4997611;28;20029;-79
2021/10/15 10:48:50;;;;;;;4.93;2.40;;;;;;;;;;5018763;28;20417;-78
2021/10/15 10:51:19;;;;;;;9.30;2.80;;;;;;;;;;4992012;28;20030;-78
2021/10/15 10:54:00;;;;;;;5.38;2.92;;;;;;;;;;4992544;28;20856;-79
2021/10/15 10:56:50;;;;;;;2.95;2.30;;;;;;;;;;5005677;28;20040;-78
2021/10/15 10:59:18;;;;;;;3.80;2.42;;;;;;;;;;5007039;28;20096;-79
2021/10/15 11:01:54;;;;;;;4.00;2.97;;;;;;;;;;5009523;28;20072;-79
2021/10/15 11:04:32;;;;;;;3.22;2.30;;;;;;;;;;4988023;28;20033;-79
2021/10/15 11:06:58;;;;;;;3.40;2.40;;;;;;;;;;5007692;28;20389;-79
2021/10/15 11:09:35;;;;;;;3.00;2.60;;;;;;;;;;5006171;28;20304;-79
2021/10/15 11:12:01;;;;;;;4.80;2.88;;;;;;;;;;5007216;28;20029;-82
2021/10/15 11:14:53;;;;;;;4.43;2.65;;;;;;;;;;4989304;28;20516;-82
2021/10/15 11:17:46;;;;;;;3.67;2.33;;;;;;;;;;5005790;28;20049;-79
2021/10/15 11:20:18;;;;;;;6.80;3.10;;;;;;;;;;5007475;28;20025;-78
2021/10/15 11:22:55;;;;;;;5.13;2.92;;;;;;;;;;4988980;28;20503;-78
2021/10/15 11:25:23;;;;;;;4.32;2.88;;;;;;;;;;5005035;28;20037;-78
2021/10/15 11:27:54;;;;;;;4.07;2.30;;;;;;;;;;4987680;28;20037;-78
2021/10/15 11:30:22;;;;;;;5.30;2.38;;;;;;;;;;5005323;28;20034;-79
2021/10/15 11:32:49;;;;;;;4.28;3.30;;;;;;;;;;5007873;28;20025;-79
2021/10/15 11:35:16;;;;;;;4.07;2.60;;;;;;;;;;4991854;28;20022;-79
2021/10/15 11:37:46;;;;;;;4.85;2.33;;;;;;;;;;5007022;28;20109;-80
2021/10/15 11:40:21;;;;;;;3.67;2.70;;;;;;;;;;5005000;28;20489;-79
2021/10/15 11:42:50;;;;;;;3.08;2.70;;;;;;;;;;4990670;28;21437;-80
2021/10/15 11:45:25;;;;;;;14.30;2.55;;;;;;;;;;5012270;28;20064;-80
2021/10/15 11:48:05;;;;;;;5.93;2.70;;;;;;;;;;5013259;28;20088;-80
2021/10/15 11:50:56;;;;;;;4.53;2.50;;;;;;;;;;5014996;28;20030;-80
2021/10/15 11:53:27;;;;;;;6.15;2.35;;;;;;;;;;5014884;28;20112;-81
2021/10/15 11:55:54;;;;;;;3.95;2.17;;;;;;;;;;5012759;28;20051;-81
2021/10/15 11:58:22;;;;;;;5.95;3.10;;;;;;;;;;5008055;28;20046;-80
2021/10/15 12:01:15;;;;;;;4.72;2.58;;;;;;;;;;5010012;28;20058;-80
2021/10/15 12:03:42;;;;;;;6.93;2.50;;;;;;;;;;5009660;28;20101;-81
2021/10/15 12:06:20;;;;;;;4.65;2.47;;;;;;;;;;5006530;28;20018;-82
2021/10/15 12:08:48;;;;;;;4.07;2.50;;;;;;;;;;5011044;28;20044;-84
2021/10/15 12:11:41;;;;;;;4.07;2.85;;;;;;;;;;5011942;28;20266;-82
2021/10/15 12:14:14;;;;;;;3.95;2.28;;;;;;;;;;5011705;28;20018;-81
2021/10/15 12:16:48;;;;;;;5.10;2.88;;;;;;;;;;4991916;28;20030;-81
2021/10/15 12:19:35;;;;;;;3.60;2.80;;;;;;;;;;4991526;28;20037;-80
2021/10/15 12:22:11;;;;;;;3.50;2.30;;;;;;;;;;5008932;28;20029;-80
2021/10/15 12:24:47;;;;;;;4.25;2.65;;;;;;;;;;5009729;28;20064;-81
2021/10/15 12:27:17;;;;;;;4.38;2.60;;;;;;;;;;5003148;28;20027;-81
2021/10/15 12:29:44;;;;;;;6.63;2.53;;;;;;;;;;5010244;28;20113;-81
2021/10/15 12:32:19;;;;;;;4.82;2.50;;;;;;;;;;5008153;28;20045;-81
2021/10/15 12:35:24;;;;;;;4.82;2.83;;;;;;;;;;5007653;28;20127;-82
2021/10/15 12:37:50;;;;;;;3.33;2.85;;;;;;;;;;4991110;28;20049;-81
2021/10/15 12:40:22;;;;;;;4.35;3.10;;;;;;;;;;5010203;28;20420;-81
2021/10/15 12:42:56;;;;;;;8.68;3.40;;;;;;;;;;5011495;28;20647;-80
2021/10/15 12:45:39;;;;;;;5.57;2.70;;;;;;;;;;5009733;28;20117;-79
2021/10/15 12:48:21;;;;;;;4.53;2.67;;;;;;;;;;4992514;28;20046;-79
2021/10/15 12:51:09;;;;;;;9.90;3.00;;;;;;;;;;4995502;28;20033;-79
2021/10/15 12:53:39;;;;;;;7.53;3.30;;;;;;;;;;5009550;28;20125;-82
2021/10/15 12:56:21;;;;;;;7.88;3.00;;;;;;;;;;5011287;28;20029;-80
2021/10/15 12:58:57;;;;;;;4.65;2.58;;;;;;;;;;5012423;28;20026;-79
2021/10/15 13:01:25;;;;;;;5.80;3.30;;;;;;;;;;5011345;28;20033;-81
2021/10/15 13:03:51;;;;;;;4.68;2.90;;;;;;;;;;4996738;28;20179;-80
2021/10/15 13:06:16;;;;;;;3.35;2.47;;;;;;;;;;5011885;28;20084;-80
2021/10/15 13:08:49;;;;;;;5.07;2.35;;;;;;;;;;4993432;28;20085;-80
2021/10/15 13:11:22;;;;;;;3.38;2.83;;;;;;;;;;5011259;28;20108;-80
2021/10/15 13:13:48;;;;;;;4.15;2.60;;;;;;;;;;4994804;28;20037;-80
2021/10/15 13:16:15;;;;;;;5.00;2.67;;;;;;;;;;5008413;28;20092;-80
2021/10/15 13:18:40;;;;;;;4.22;2.65;;;;;;;;;;5010468;28;20076;-80
2021/10/15 13:21:06;;;;;;;4.88;3.47;;;;;;;;;;4994762;28;20038;-79
2021/10/15 13:23:32;;;;;;;3.58;2.60;;;;;;;;;;4994786;28;20037;-79
2021/10/15 13:25:58;;;;;;;5.97;2.60;;;;;;;;;;5009811;28;20030;-81
2021/10/15 13:28:23;;;;;;;3.47;2.40;;;;;;;;;;5002724;28;20060;-78
2021/10/15 13:30:49;;;;;;;4.22;2.92;;;;;;;;;;4997810;28;20037;-79
2021/10/15 13:33:22;;;;;;;3.42;2.50;;;;;;;;;;5009044;28;20397;-81
2021/10/15 13:35:51;;;;;;;4.80;2.50;;;;;;;;;;4995194;28;20038;-81
2021/10/15 13:38:22;;;;;;;2.97;2.45;;;;;;;;;;5009161;28;20125;-81
2021/10/15 13:46:14;;;;;;;7.07;3.00;;;;;;;;;;5011548;28;20585;-80
2021/10/15 13:51:26;;;;;;;4.43;3.05;;;;;;;;;;5012021;28;20111;-80
2021/10/15 13:53:52;;;;;;;4.53;2.85;;;;;;;;;;5010564;28;20022;-80
2021/10/15 13:56:18;;;;;;;5.75;3.10;;;;;;;;;;5008031;28;20449;-81
2021/10/15 13:58:48;;;;;;;5.32;3.28;;;;;;;;;;5011236;28;20044;-80
2021/10/15 14:01:20;;;;;;;5.30;3.13;;;;;;;;;;4994104;28;20423;-81
2021/10/15 14:06:14;;;;;;;5.60;3.13;;;;;;;;;;5009483;28;20025;-81
2021/10/15 14:08:40;;;;;;;5.72;3.22;;;;;;;;;;5010285;28;20026;-81
2021/10/15 14:11:06;;;;;;;5.47;3.22;;;;;;;;;;5012238;28;20101;-81
2021/10/15 14:13:32;;;;;;;5.60;3.20;;;;;;;;;;5011890;28;20038;-79
2021/10/15 14:15:58;;;;;;;6.00;3.42;;;;;;;;;;4992637;28;20082;-80
2021/10/15 14:18:24;;;;;;;7.88;3.72;;;;;;;;;;5008871;28;20038;-79
2021/10/15 14:20:50;;;;;;;5.85;3.60;;;;;;;;;;5010317;28;20587;-78
2021/10/15 14:23:16;;;;;;;7.07;4.40;;;;;;;;;;5009735;28;20026;-82
2021/10/15 14:25:41;;;;;;;8.25;4.03;;;;;;;;;;4992246;28;20121;-83
2021/10/15 14:28:07;;;;;;;8.27;4.50;;;;;;;;;;5011281;28;20028;-80
2021/10/15 14:30:32;;;;;;;7.13;4.85;;;;;;;;;;5012088;28;20064;-81
2021/10/15 14:33:00;;;;;;;8.20;4.78;;;;;;;;;;5018832;28;20522;-80
2021/10/15 14:35:26;;;;;;;7.55;4.72;;;;;;;;;;4996395;28;20034;-81
2021/10/15 14:37:51;;;;;;;10.32;5.25;;;;;;;;;;4993502;28;20103;-80
2021/10/15 14:40:17;;;;;;;9.85;5.32;;;;;;;;;;5009841;28;20021;-80
2021/10/15 14:42:42;;;;;;;10.98;6.38;;;;;;;;;;4991772;28;20040;-80
2021/10/15 14:45:09;;;;;;;7.70;5.30;;;;;;;;;;5008114;28;20045;-81
2021/10/15 14:47:35;;;;;;;11.18;5.75;;;;;;;;;;4991429;28;20103;-81
2021/10/15 14:50:00;;;;;;;13.80;6.00;;;;;;;;;;4992580;28;20070;-80
2021/10/15 14:52:26;;;;;;;12.50;5.93;;;;;;;;;;5010111;28;20029;-81
2021/10/15 14:54:52;;;;;;;9.27;5.35;;;;;;;;;;4992282;28;20041;-80
2021/10/15 14:57:18;;;;;;;10.98;5.55;;;;;;;;;;5008893;28;20022;-81
2021/10/15 14:59:44;;;;;;;10.52;5.60;;;;;;;;;;5009765;28;20041;-79
2021/10/15 15:02:11;;;;;;;10.00;5.15;;;;;;;;;;4990931;28;20029;-80
2021/10/15 15:04:37;;;;;;;8.55;5.13;;;;;;;;;;4993680;28;20109;-79
2021/10/15 15:07:03;;;;;;;7.45;4.88;;;;;;;;;;5007854;28;20112;-81